Time;durP1;ratioP1;P1;durP2;ratioP2;P2;SDS_P1;SDS_P2;PMS_P1;PMS_P2;Temp;Humidity;BMP_temperature;BMP_pressure;BME280_temperature;BME280_humidity;BME280_pressure;Samples;Min_cycle;Max_cycle;Signal;HPM_P1;HPM_P2
2023/08/18 00:02:15;;;;;;;0.63;0.63;;;;;;;21.67;85.17;99784.63;5093377;28;20577;-61
2023/08/18 00:04:44;;;;;;;1.48;1.38;;;;;;;21.68;85.24;99782.88;5092587;28;20098;-63
2023/08/18 00:07:13;;;;;;;0.90;0.90;;;;;;;21.72;85.21;99777.47;5095765;28;20409;-63
2023/08/18 00:09:43;;;;;;;1.38;1.05;;;;;;;21.74;85.23;99782.63;5097803;28;20040;-63
2023/08/18 00:12:12;;;;;;;0.70;0.70;;;;;;;21.69;85.60;99781.97;5097502;28;20052;-62
2023/08/18 00:14:41;;;;;;;0.60;0.60;;;;;;;21.63;85.73;99775.28;5097480;28;20047;-62
2023/08/18 00:17:11;;;;;;;1.42;1.05;;;;;;;21.66;86.11;99777.75;5097409;28;20060;-63
2023/08/18 00:19:40;;;;;;;1.30;0.90;;;;;;;21.70;86.20;99770.66;5097340;28;20051;-62
2023/08/18 00:22:09;;;;;;;0.90;0.80;;;;;;;21.67;86.13;99771.63;5097258;28;20040;-63
2023/08/18 00:24:38;;;;;;;1.25;1.15;;;;;;;21.60;86.19;99774.56;5097537;28;20047;-63
2023/08/18 00:27:07;;;;;;;1.05;0.95;;;;;;;21.54;86.40;99770.50;5097203;28;20047;-62
2023/08/18 00:29:36;;;;;;;0.52;0.52;;;;;;;21.52;86.38;99771.50;5096285;28;20456;-62
2023/08/18 00:32:06;;;;;;;1.75;1.00;;;;;;;21.55;86.42;99763.53;5095816;28;20131;-62
2023/08/18 00:34:36;;;;;;;0.82;0.82;;;;;;;21.59;86.14;99767.72;5097415;28;20148;-62
2023/08/18 00:37:05;;;;;;;1.40;1.20;;;;;;;21.58;86.22;99760.81;5095919;28;20071;-63
2023/08/18 00:39:34;;;;;;;0.70;0.70;;;;;;;21.51;86.06;99764.59;5095798;28;20119;-63
2023/08/18 00:42:02;;;;;;;0.73;0.73;;;;;;;21.45;85.83;99759.69;5096817;28;20067;-63
2023/08/18 00:44:31;;;;;;;1.08;0.98;;;;;;;21.41;85.64;99758.09;5095725;28;20044;-63
2023/08/18 00:47:01;;;;;;;0.90;0.90;;;;;;;21.38;85.50;99759.94;5095729;28;20036;-64
2023/08/18 00:49:30;;;;;;;0.82;0.82;;;;;;;21.41;85.53;99758.09;5095843;28;20123;-63
2023/08/18 00:52:01;;;;;;;0.63;0.60;;;;;;;21.46;85.36;99761.34;5096701;28;20604;-63
2023/08/18 00:54:32;;;;;;;1.30;1.02;;;;;;;21.47;85.26;99750.06;5096644;28;20280;-62
2023/08/18 00:57:01;;;;;;;1.60;1.20;;;;;;;21.43;85.00;99751.13;5095782;28;20111;-63
2023/08/18 00:59:31;;;;;;;0.98;0.75;;;;;;;21.35;84.95;99754.84;5096604;28;20054;-63
2023/08/18 01:02:03;;;;;;;0.50;0.50;;;;;;;21.33;85.03;99761.88;5095366;28;20123;-62
2023/08/18 01:04:32;;;;;;;1.38;1.13;;;;;;;21.32;85.34;99755.03;5096365;28;20127;-63
2023/08/18 01:07:03;;;;;;;1.08;0.95;;;;;;;21.32;85.22;99760.22;5096475;28;20051;-63
2023/08/18 01:09:32;;;;;;;1.13;1.02;;;;;;;21.30;85.40;99762.03;5096379;28;20130;-63
2023/08/18 01:12:14;;;;;;;1.50;1.40;;;;;;;21.33;85.68;99761.88;5095133;28;20126;-63
2023/08/18 01:14:56;;;;;;;18.83;1.65;;;;;;;21.30;85.30;99762.03;5095118;28;20052;-63
2023/08/18 01:17:33;;;;;;;0.65;0.65;;;;;;;21.31;85.64;99766.28;5096532;28;20047;-62
2023/08/18 01:20:02;;;;;;;1.17;1.10;;;;;;;21.30;85.71;99764.63;5095940;28;20115;-62
2023/08/18 01:22:35;;;;;;;0.63;0.63;;;;;;;21.31;85.75;99768.91;5096184;28;20051;-63
2023/08/18 01:25:07;;;;;;;0.63;0.63;;;;;;;21.29;85.87;99767.28;5095983;28;20068;-62
2023/08/18 01:27:36;;;;;;;1.67;0.95;;;;;;;21.27;85.76;99762.16;5096134;28;20145;-62
2023/08/18 01:30:06;;;;;;;0.70;0.70;;;;;;;21.24;86.06;99761.44;5096306;28;20039;-62
2023/08/18 01:32:41;;;;;;;0.85;0.55;;;;;;;21.23;86.07;99760.63;5095411;28;20074;-62
2023/08/18 01:35:12;;;;;;;0.80;0.80;;;;;;;21.21;86.04;99759.81;5095920;28;20145;-62
2023/08/18 01:37:44;;;;;;;0.60;0.60;;;;;;;21.16;86.17;99748.78;5095849;28;20048;-62
2023/08/18 01:40:17;;;;;;;0.70;0.70;;;;;;;21.18;86.19;99754.78;5096150;28;20048;-62
2023/08/18 01:42:48;;;;;;;1.17;1.08;;;;;;;21.13;86.47;99751.53;5095826;28;20044;-62
2023/08/18 01:45:17;;;;;;;1.10;1.00;;;;;;;21.11;86.26;99755.09;5095501;28;20032;-62
2023/08/18 01:47:45;;;;;;;0.55;0.55;;;;;;;21.08;86.42;99750.03;5094735;28;20375;-62
2023/08/18 01:50:16;;;;;;;2.67;1.35;;;;;;;21.03;86.39;99747.59;5095840;28;20056;-62
2023/08/18 01:52:45;;;;;;;1.33;0.95;;;;;;;21.00;86.71;99745.13;5094328;28;20040;-62
2023/08/18 01:55:15;;;;;;;0.98;0.85;;;;;;;20.97;86.59;99747.81;5095409;28;20131;-63
2023/08/18 01:57:44;;;;;;;1.75;1.30;;;;;;;20.97;86.64;99742.63;5095469;28;20040;-63
2023/08/18 02:00:13;;;;;;;2.28;1.40;;;;;;;20.93;86.58;99741.09;5094177;28;20036;-63
2023/08/18 02:02:54;;;;;;;0.68;0.60;;;;;;;20.94;86.84;99740.19;5095372;28;20501;-63
2023/08/18 02:05:23;;;;;;;1.30;1.17;;;;;;;20.92;86.65;99739.44;5095216;28;20043;-62
2023/08/18 02:07:51;;;;;;;1.00;0.90;;;;;;;20.88;86.60;99739.59;5095295;28;20086;-62
2023/08/18 02:10:23;;;;;;;1.65;1.10;;;;;;;20.87;86.61;99741.38;5095839;28;20269;-62
2023/08/18 02:12:52;;;;;;;1.48;1.25;;;;;;;20.84;86.66;99731.09;5093996;28;20074;-62
2023/08/18 02:15:20;;;;;;;1.25;1.15;;;;;;;20.82;86.57;99734.66;5094166;28;20048;-62
2023/08/18 02:17:50;;;;;;;0.77;0.77;;;;;;;20.77;86.75;99729.66;5095070;28;20051;-62
2023/08/18 02:20:22;;;;;;;1.80;1.48;;;;;;;20.80;86.83;99728.69;5095644;28;20478;-63
2023/08/18 02:22:51;;;;;;;1.17;0.80;;;;;;;20.78;86.61;99726.16;5094072;28;20486;-63
2023/08/18 02:25:21;;;;;;;0.57;0.57;;;;;;;20.78;86.81;99731.34;5093778;28;20036;-63
2023/08/18 02:27:51;;;;;;;1.27;1.17;;;;;;;20.77;86.81;99714.09;5094194;28;20474;-62
2023/08/18 02:30:20;;;;;;;1.83;1.52;;;;;;;20.73;86.51;99717.75;5093794;28;20040;-62
2023/08/18 02:32:49;;;;;;;1.60;1.05;;;;;;;20.69;86.63;99721.34;5094489;28;20378;-62
2023/08/18 02:35:18;;;;;;;1.83;1.13;;;;;;;20.65;86.83;99715.47;5093751;28;20040;-62
2023/08/18 02:37:47;;;;;;;1.30;1.20;;;;;;;20.63;86.79;99717.28;5094661;28;20075;-62
2023/08/18 02:40:17;;;;;;;9.05;1.50;;;;;;;20.64;86.73;99712.91;5095240;28;20046;-63
2023/08/18 02:42:47;;;;;;;3.50;3.15;;;;;;;20.62;86.74;99707.78;5094843;28;20139;-63
2023/08/18 02:45:18;;;;;;;4.00;1.75;;;;;;;20.58;86.92;99702.81;5094837;28;20032;-62
2023/08/18 02:47:46;;;;;;;1.65;1.20;;;;;;;20.58;86.92;99708.00;5094214;28;20066;-62
2023/08/18 02:50:15;;;;;;;1.33;0.80;;;;;;;20.55;86.70;99697.72;5076336;28;20396;-63
2023/08/18 02:52:44;;;;;;;0.85;0.75;;;;;;;20.54;86.85;99698.63;5094449;28;20510;-62
2023/08/18 02:55:13;;;;;;;0.57;0.57;;;;;;;20.51;86.96;99703.97;5093391;28;20044;-63
2023/08/18 02:57:42;;;;;;;1.05;0.82;;;;;;;20.50;87.01;99695.31;5093062;28;20360;-62
2023/08/18 03:00:12;;;;;;;0.70;0.70;;;;;;;20.52;87.03;99695.25;5094311;28;20064;-62
2023/08/18 03:02:43;;;;;;;0.70;0.70;;;;;;;20.49;87.00;99698.00;5094257;28;20055;-63
2023/08/18 03:05:12;;;;;;;0.93;0.90;;;;;;;20.42;86.97;99704.34;5093262;28;20093;-63
2023/08/18 03:07:41;;;;;;;1.40;1.20;;;;;;;20.40;87.32;99703.53;5092939;28;20060;-62
2023/08/18 03:10:11;;;;;;;1.80;1.23;;;;;;;20.39;87.08;99705.31;5094055;28;20063;-62
2023/08/18 03:12:39;;;;;;;1.05;0.95;;;;;;;20.38;87.24;99702.75;5094031;28;20055;-62
2023/08/18 03:15:09;;;;;;;0.85;0.82;;;;;;;20.40;87.29;99700.94;5092810;28;20066;-62
2023/08/18 03:17:38;;;;;;;1.00;0.90;;;;;;;20.38;87.02;99694.97;5092757;28;20084;-62
2023/08/18 03:20:10;;;;;;;1.65;1.55;;;;;;;20.39;87.20;99704.47;5093048;28;20402;-62
2023/08/18 03:22:40;;;;;;;6.47;0.90;;;;;;;20.39;87.26;99702.72;5094277;28;20098;-63
2023/08/18 03:25:10;;;;;;;1.52;0.80;;;;;;;20.40;87.00;99708.72;5093832;28;20109;-62
2023/08/18 03:27:40;;;;;;;1.10;1.00;;;;;;;20.41;87.14;99705.22;5092673;28;20117;-62
2023/08/18 03:30:11;;;;;;;1.40;1.30;;;;;;;20.39;87.21;99699.28;5093753;28;20040;-62
2023/08/18 03:32:40;;;;;;;0.98;0.93;;;;;;;20.41;87.06;99710.41;5093799;28;20048;-62
2023/08/18 03:35:11;;;;;;;0.80;0.80;;;;;;;20.37;87.35;99706.28;5092861;28;20126;-62
2023/08/18 03:37:40;;;;;;;0.95;0.93;;;;;;;20.36;87.37;99707.16;5094052;28;20044;-62
2023/08/18 03:40:10;;;;;;;1.33;0.75;;;;;;;20.37;87.42;99714.06;5093963;28;20482;-61
2023/08/18 03:42:39;;;;;;;0.75;0.68;;;;;;;20.39;87.26;99712.22;5093275;28;20044;-62
2023/08/18 03:45:09;;;;;;;2.70;1.25;;;;;;;20.41;87.38;99705.22;5093580;28;20474;-62
2023/08/18 03:47:39;;;;;;;1.85;1.08;;;;;;;20.43;87.34;99713.78;5093414;28;20044;-63
2023/08/18 03:50:08;;;;;;;;;;;;;;;20.42;87.28;99709.53;5092987;28;20046;-62
2023/08/18 03:52:38;;;;;;;1.38;0.82;;;;;;;20.40;87.32;99708.72;5092386;28;19974;-62
2023/08/18 03:55:09;;;;;;;0.88;0.88;;;;;;;20.39;87.34;99707.91;5092398;28;20044;-62
2023/08/18 03:57:38;;;;;;;1.45;1.30;;;;;;;20.36;87.40;99708.00;5092914;28;20379;-62
2023/08/18 04:00:09;;;;;;;1.05;0.73;;;;;;;20.33;87.34;99712.47;5093735;28;20409;-61
2023/08/18 04:02:42;;;;;;;1.50;1.25;;;;;;;20.36;87.37;99717.53;5093575;28;20130;-61
2023/08/18 04:05:16;;;;;;;1.65;1.40;;;;;;;20.29;87.28;99716.09;5093521;28;20156;-61
2023/08/18 04:07:47;;;;;;;0.60;0.60;;;;;;;20.29;87.54;99716.09;5093515;28;20048;-62
2023/08/18 04:10:16;;;;;;;1.25;1.15;;;;;;;20.29;87.54;99716.94;5093445;28;20110;-62
2023/08/18 04:12:45;;;;;;;3.03;2.30;;;;;;;20.30;87.34;99722.97;5092187;28;20089;-62
2023/08/18 04:15:15;;;;;;;1.20;1.10;;;;;;;20.26;87.35;99721.38;5092193;28;20043;-62
2023/08/18 04:17:44;;;;;;;0.77;0.70;;;;;;;20.22;87.69;99717.22;5092482;28;20102;-63
2023/08/18 04:20:13;;;;;;;1.08;1.00;;;;;;;20.20;87.63;99716.44;5092054;28;20119;-61
2023/08/18 04:22:42;;;;;;;0.63;0.63;;;;;;;20.21;87.72;99715.50;5092264;28;20390;-62
2023/08/18 04:25:14;;;;;;;2.85;1.45;;;;;;;20.17;87.94;99722.56;5093174;28;20085;-62
2023/08/18 04:27:43;;;;;;;1.48;1.10;;;;;;;20.18;87.90;99721.66;5092694;28;20051;-62
2023/08/18 04:30:13;;;;;;;;;;;;;;;20.16;87.86;99730.38;5094265;28;20050;-62
2023/08/18 04:32:42;;;;;;;1.60;1.33;;;;;;;20.16;88.10;99725.22;5092321;28;19923;-62
2023/08/18 04:35:13;;;;;;;0.63;0.63;;;;;;;20.19;88.25;99718.16;5093182;28;20064;-63
2023/08/18 04:37:42;;;;;;;1.80;1.10;;;;;;;20.22;88.25;99720.69;5092244;28;20044;-63
2023/08/18 04:40:12;;;;;;;1.05;0.95;;;;;;;20.26;88.44;99721.38;5094014;28;20048;-63
2023/08/18 04:42:43;;;;;;;0.63;0.63;;;;;;;20.31;88.33;99728.09;5091892;28;20052;-62
2023/08/18 04:45:12;;;;;;;1.77;1.65;;;;;;;20.35;88.40;99731.38;5092151;28;20137;-63
2023/08/18 04:47:41;;;;;;;1.80;1.55;;;;;;;20.31;88.37;99737.59;5092784;28;20119;-63
2023/08/18 04:50:11;;;;;;;1.83;1.38;;;;;;;20.32;88.51;99736.72;5091876;28;20044;-63
2023/08/18 04:52:40;;;;;;;3.13;1.42;;;;;;;20.39;88.52;99740.75;5092013;28;20127;-62
2023/08/18 04:55:09;;;;;;;2.20;1.92;;;;;;;20.47;88.35;99741.28;5095236;28;20044;-61
2023/08/18 04:57:38;;;;;;;1.25;1.00;;;;;;;20.53;88.34;99746.22;5096874;28;20071;-62
2023/08/18 05:00:11;;;;;;;1.45;1.35;;;;;;;20.59;88.25;99748.56;5095355;28;20043;-61
2023/08/18 05:02:40;;;;;;;1.30;1.20;;;;;;;20.66;88.14;99747.41;5096889;28;20490;-62
2023/08/18 05:05:09;;;;;;;1.20;1.10;;;;;;;20.70;87.99;99759.38;5095320;28;20051;-62
2023/08/18 05:07:38;;;;;;;1.00;0.90;;;;;;;20.76;87.98;99751.31;5095298;28;20482;-63
2023/08/18 05:10:08;;;;;;;2.00;1.42;;;;;;;20.81;87.78;99746.78;5095474;28;20035;-63
2023/08/18 05:12:37;;;;;;;0.95;0.82;;;;;;;20.84;87.64;99741.47;5095512;28;20554;-62
2023/08/18 05:15:09;;;;;;;1.10;0.98;;;;;;;20.88;87.58;99748.22;5096311;28;20040;-63
2023/08/18 05:17:38;;;;;;;1.15;1.05;;;;;;;20.93;87.55;99751.47;5096270;28;20055;-60
2023/08/18 05:20:08;;;;;;;1.08;0.98;;;;;;;20.98;87.45;99748.69;5096193;28;20059;-61
2023/08/18 05:22:37;;;;;;;3.40;1.67;;;;;;;21.01;87.25;99749.41;5096129;28;20127;-62
2023/08/18 05:25:07;;;;;;;1.83;1.60;;;;;;;21.03;87.07;99752.78;5096001;28;20493;-62
2023/08/18 05:27:36;;;;;;;1.48;1.38;;;;;;;21.12;87.09;99751.56;5096117;28;20044;-62
2023/08/18 05:30:08;;;;;;;0.77;0.77;;;;;;;21.15;87.08;99757.50;5096027;28;20044;-61
2023/08/18 05:32:38;;;;;;;0.77;0.77;;;;;;;21.20;86.87;99763.34;5095106;28;20397;-62
2023/08/18 05:35:10;;;;;;;1.42;1.27;;;;;;;21.24;86.88;99772.66;5095914;28;20417;-63
2023/08/18 05:37:39;;;;;;;3.33;1.20;;;;;;;21.28;86.50;99773.41;5096480;28;20056;-63
2023/08/18 05:40:09;;;;;;;0.82;0.82;;;;;;;21.34;86.25;99773.13;5095833;28;20040;-63
2023/08/18 05:42:38;;;;;;;3.45;1.42;;;;;;;21.35;86.25;99770.44;5095733;28;20051;-63
2023/08/18 05:45:09;;;;;;;1.00;0.90;;;;;;;21.44;86.35;99773.56;5095686;28;20127;-62
2023/08/18 05:47:39;;;;;;;1.00;0.90;;;;;;;21.53;86.15;99767.97;5095617;28;20083;-63
2023/08/18 05:50:11;;;;;;;1.35;1.25;;;;;;;21.63;85.86;99774.44;5095928;28;20433;-62
2023/08/18 05:52:40;;;;;;;1.98;1.33;;;;;;;21.65;85.70;99778.66;5095824;28;20048;-62
2023/08/18 05:55:09;;;;;;;0.93;0.85;;;;;;;21.68;85.75;99767.28;5096054;28;20039;-62
2023/08/18 05:57:41;;;;;;;1.40;1.30;;;;;;;21.71;85.71;99774.97;5095194;28;20040;-63
2023/08/18 06:00:13;;;;;;;1.17;0.88;;;;;;;21.67;85.69;99771.63;5092090;28;20040;-62
2023/08/18 06:02:44;;;;;;;2.15;1.58;;;;;;;21.68;85.76;99772.50;5094599;28;20089;-62
2023/08/18 06:05:13;;;;;;;1.08;0.93;;;;;;;21.70;85.57;99768.06;5095039;28;20051;-62
2023/08/18 06:07:42;;;;;;;1.10;0.82;;;;;;;21.70;85.50;99765.47;5095071;28;20032;-62
2023/08/18 06:10:12;;;;;;;6.90;2.85;;;;;;;21.71;85.38;99777.56;5095494;28;20040;-62
2023/08/18 06:12:41;;;;;;;0.85;0.80;;;;;;;21.73;85.39;99771.38;5095460;28;20043;-62
2023/08/18 06:15:11;;;;;;;0.77;0.77;;;;;;;21.76;85.34;99765.22;5094232;28;20517;-62
2023/08/18 06:17:40;;;;;;;1.55;1.10;;;;;;;21.76;85.52;99775.59;5094118;28;20052;-63
2023/08/18 06:20:12;;;;;;;3.17;1.67;;;;;;;21.74;85.38;99777.44;5095130;28;20512;-63
2023/08/18 06:22:41;;;;;;;1.17;1.00;;;;;;;21.79;85.30;99776.28;5095053;28;20052;-63
2023/08/18 06:25:12;;;;;;;1.77;0.93;;;;;;;21.92;84.97;99772.28;5094062;28;20036;-63
2023/08/18 06:27:41;;;;;;;8.52;6.18;;;;;;;22.12;84.84;99773.13;5093566;28;20081;-62
2023/08/18 06:30:11;;;;;;;1.30;1.20;;;;;;;22.27;84.49;99777.56;5090086;28;20051;-64
2023/08/18 06:32:40;;;;;;;0.98;0.88;;;;;;;22.41;84.21;99770.81;5085165;28;20051;-62
2023/08/18 06:35:09;;;;;;;2.13;1.88;;;;;;;22.51;83.50;99771.22;5094616;28;20048;-62
2023/08/18 06:37:39;;;;;;;;;;;;;;;22.61;83.11;99773.34;5095042;28;20043;-62
2023/08/18 06:40:09;;;;;;;1.83;1.25;;;;;;;22.70;82.48;99772.03;5093895;28;19924;-63
2023/08/18 06:42:38;;;;;;;1.33;1.15;;;;;;;22.69;81.63;99780.78;5094532;28;20517;-62
2023/08/18 06:45:09;;;;;;;12.07;1.95;;;;;;;22.70;81.30;99776.44;5094508;28;20075;-63
2023/08/18 06:47:37;;;;;;;2.40;1.58;;;;;;;22.80;81.06;99775.03;5094171;28;20056;-63
2023/08/18 06:50:09;;;;;;;1.50;1.35;;;;;;;22.88;80.57;99775.53;5092506;28;20048;-62
2023/08/18 06:52:41;;;;;;;1.00;0.98;;;;;;;22.87;79.71;99773.81;5094429;28;20068;-62
2023/08/18 06:55:13;;;;;;;0.73;0.73;;;;;;;22.99;78.98;99771.47;5094311;28;20055;-63
2023/08/18 06:57:48;;;;;;;0.83;0.83;;;;;;;22.99;78.79;99763.66;5094669;28;20062;-62
2023/08/18 07:00:18;;;;;;;1.33;1.10;;;;;;;23.04;78.53;99781.66;5093159;28;20040;-62
2023/08/18 07:02:50;;;;;;;2.85;0.80;;;;;;;23.05;77.93;99767.72;5093530;28;20120;-62
2023/08/18 07:05:24;;;;;;;2.03;1.48;;;;;;;23.11;77.72;99772.59;5093962;28;20044;-63
2023/08/18 07:07:56;;;;;;;0.70;0.70;;;;;;;23.22;77.35;99780.75;5094177;28;20136;-63
2023/08/18 07:10:25;;;;;;;0.57;0.57;;;;;;;23.36;76.41;99777.44;5093313;28;20041;-62
2023/08/18 07:12:54;;;;;;;2.05;1.25;;;;;;;23.51;75.69;99777.53;5093919;28;20390;-63
2023/08/18 07:15:23;;;;;;;1.10;0.82;;;;;;;23.66;75.46;99779.31;5093907;28;20044;-61
2023/08/18 07:17:52;;;;;;;0.63;0.63;;;;;;;23.77;74.99;99786.56;5093848;28;20039;-62
2023/08/18 07:20:24;;;;;;;1.55;1.30;;;;;;;23.82;74.89;99784.56;5092807;28;20093;-63
2023/08/18 07:22:55;;;;;;;1.25;1.00;;;;;;;23.84;74.62;99783.56;5094131;28;20093;-63
2023/08/18 07:25:24;;;;;;;0.70;0.70;;;;;;;23.91;74.84;99782.31;5093752;28;20532;-62
2023/08/18 07:27:53;;;;;;;1.92;1.75;;;;;;;23.86;74.35;99786.91;5094014;28;20524;-63
2023/08/18 07:30:23;;;;;;;0.90;0.85;;;;;;;23.72;74.46;99793.78;5093286;28;20032;-62
2023/08/18 07:32:54;;;;;;;2.47;1.27;;;;;;;23.58;74.59;99788.47;5093752;28;20097;-64
2023/08/18 07:35:23;;;;;;;0.85;0.80;;;;;;;23.50;75.18;99796.66;5093992;28;20044;-62
2023/08/18 07:37:52;;;;;;;0.82;0.82;;;;;;;23.48;75.04;99788.09;5093697;28;20036;-62
2023/08/18 07:40:25;;;;;;;0.60;0.60;;;;;;;23.45;74.74;99793.44;5092570;28;20127;-63
2023/08/18 07:42:55;;;;;;;1.83;1.15;;;;;;;23.37;74.45;99795.59;5093924;28;20046;-61
2023/08/18 07:45:24;;;;;;;0.80;0.80;;;;;;;23.37;74.56;99795.59;5093482;28;20497;-62
2023/08/18 07:47:52;;;;;;;1.67;1.55;;;;;;;23.43;74.63;99800.50;5093224;28;20048;-63
2023/08/18 07:50:22;;;;;;;2.00;1.10;;;;;;;23.48;74.70;99793.31;5091449;28;20101;-64
2023/08/18 07:52:51;;;;;;;3.88;1.85;;;;;;;23.50;74.72;99794.06;5093631;28;20573;-64
2023/08/18 07:55:21;;;;;;;1.25;1.15;;;;;;;23.59;74.52;99805.75;5093794;28;20109;-62
2023/08/18 07:57:51;;;;;;;1.13;0.82;;;;;;;23.61;74.02;99809.97;5093445;28;20048;-61
2023/08/18 08:00:22;;;;;;;1.48;1.33;;;;;;;23.60;73.63;99807.47;5092349;28;20127;-63
2023/08/18 08:02:51;;;;;;;1.08;0.95;;;;;;;23.56;73.45;99812.00;5093435;28;20072;-62
2023/08/18 08:05:20;;;;;;;0.75;0.75;;;;;;;23.57;73.13;99813.66;5093409;28;20047;-62
2023/08/18 08:07:50;;;;;;;1.33;1.02;;;;;;;23.58;73.15;99820.59;5096992;28;20578;-62
2023/08/18 08:10:19;;;;;;;1.85;1.17;;;;;;;23.62;72.85;99829.91;5114319;28;20397;-62
2023/08/18 08:12:49;;;;;;;1.00;0.90;;;;;;;23.63;72.95;99834.22;5110019;28;20063;-62
2023/08/18 08:15:20;;;;;;;0.63;0.63;;;;;;;23.61;72.50;99836.03;5092970;28;20480;-62
2023/08/18 08:17:49;;;;;;;0.90;0.90;;;;;;;23.63;72.68;99844.66;5092267;28;20044;-63
2023/08/18 08:20:20;;;;;;;1.85;1.02;;;;;;;23.61;73.14;99841.25;5093516;28;20036;-62
2023/08/18 08:22:51;;;;;;;0.60;0.60;;;;;;;23.55;72.99;99846.78;5093079;28;20051;-63
2023/08/18 08:25:19;;;;;;;1.02;0.88;;;;;;;23.46;73.35;99839.44;5092953;28;20597;-62
2023/08/18 08:27:53;;;;;;;0.82;0.82;;;;;;;23.42;73.40;99840.50;5093546;28;20440;-64
2023/08/18 08:30:28;;;;;;;1.40;1.30;;;;;;;23.41;73.77;99833.63;5097004;28;20032;-62
2023/08/18 08:33:00;;;;;;;0.80;0.80;;;;;;;23.43;74.14;99836.13;5097079;28;20043;-64
2023/08/18 08:35:29;;;;;;;;;;;;;;;23.39;74.99;99845.88;5097135;28;20032;-62
2023/08/18 08:37:57;;;;;;;0.73;0.70;;;;;;;23.31;76.62;99848.00;5096030;28;20023;-64
2023/08/18 08:40:27;;;;;;;2.58;0.93;;;;;;;23.19;78.10;99846.00;5097204;28;20049;-63
2023/08/18 08:42:56;;;;;;;1.77;0.80;;;;;;;23.10;79.69;99830.84;5095959;28;20044;-63
2023/08/18 08:45:30;;;;;;;0.73;0.73;;;;;;;23.07;80.95;99825.78;5097160;28;20470;-63
2023/08/18 08:48:06;;;;;;;2.53;0.98;;;;;;;23.05;81.59;99825.00;5095477;28;20048;-62
2023/08/18 08:50:39;;;;;;;0.98;0.98;;;;;;;23.02;81.79;99830.34;5094792;28;20432;-63
2023/08/18 08:53:11;;;;;;;0.98;0.82;;;;;;;23.01;81.85;99828.69;5096731;28;20052;-62
2023/08/18 08:55:43;;;;;;;1.33;0.88;;;;;;;22.99;82.12;99830.50;5094347;28;20064;-63
2023/08/18 08:58:14;;;;;;;1.70;1.60;;;;;;;23.03;82.36;99832.06;5096471;28;20052;-62
2023/08/18 09:00:46;;;;;;;1.88;0.82;;;;;;;23.04;82.52;99828.50;5096549;28;20050;-62
2023/08/18 09:03:15;;;;;;;1.70;1.17;;;;;;;22.96;82.88;99821.06;5096567;28;20044;-63
2023/08/18 09:05:44;;;;;;;0.75;0.75;;;;;;;22.86;83.50;99830.28;5095673;28;20040;-62
2023/08/18 09:08:13;;;;;;;1.42;1.27;;;;;;;22.88;84.00;99823.22;5096591;28;20063;-62
2023/08/18 09:10:43;;;;;;;4.75;2.45;;;;;;;22.94;84.19;99822.09;5096372;28;20047;-62
2023/08/18 09:13:13;;;;;;;1.05;0.90;;;;;;;22.97;84.61;99821.94;5096969;28;20132;-62
2023/08/18 09:15:44;;;;;;;1.17;1.08;;;;;;;23.01;84.65;99823.47;5095190;28;20048;-62
2023/08/18 09:18:15;;;;;;;1.70;1.25;;;;;;;23.03;84.94;99819.03;5095366;28;20040;-62
2023/08/18 09:20:44;;;;;;;2.40;1.45;;;;;;;23.00;84.94;99819.19;5096252;28;20082;-63
2023/08/18 09:23:13;;;;;;;1.27;1.00;;;;;;;23.05;84.98;99819.81;5094128;28;20051;-63
2023/08/18 09:25:42;;;;;;;3.35;2.55;;;;;;;23.17;85.31;99812.22;5094366;28;20498;-63
2023/08/18 09:28:11;;;;;;;0.77;0.77;;;;;;;23.30;85.48;99812.44;5092062;28;20048;-63
2023/08/18 09:30:44;;;;;;;1.13;1.02;;;;;;;23.33;85.72;99809.69;5095203;28;20044;-64
2023/08/18 09:33:16;;;;;;;1.65;1.30;;;;;;;23.44;85.59;99824.81;5095953;28;20052;-63
2023/08/18 09:35:59;;;;;;;1.17;1.08;;;;;;;23.45;85.64;99819.50;5095848;28;20048;-64
2023/08/18 09:38:30;;;;;;;1.13;1.00;;;;;;;23.45;85.53;99814.31;5094937;28;20040;-64
2023/08/18 09:41:04;;;;;;;1.10;1.00;;;;;;;23.51;85.52;99816.59;5095519;28;20555;-63
2023/08/18 09:43:34;;;;;;;1.50;1.40;;;;;;;23.52;85.16;99809.59;5096058;28;20044;-64
2023/08/18 09:46:05;;;;;;;1.45;1.35;;;;;;;23.46;85.12;99810.78;5096055;28;20105;-64
2023/08/18 09:48:38;;;;;;;1.50;1.05;;;;;;;23.42;84.72;99813.63;5092201;28;20401;-63
2023/08/18 09:51:10;;;;;;;3.92;1.35;;;;;;;23.53;84.99;99811.31;5095656;28;20055;-63
2023/08/18 09:53:44;;;;;;;2.22;1.48;;;;;;;23.64;85.01;99809.81;5094650;28;20044;-64
2023/08/18 09:56:15;;;;;;;3.17;1.67;;;;;;;23.73;84.87;99818.94;5095836;28;20089;-63
2023/08/18 09:58:54;;;;;;;1.20;1.10;;;;;;;23.77;84.29;99812.63;5095545;28;20044;-63
2023/08/18 10:01:24;;;;;;;0.77;0.70;;;;;;;23.77;83.87;99810.88;5094633;28;20444;-63
2023/08/18 10:03:55;;;;;;;10.05;2.35;;;;;;;23.69;83.24;99807.81;5111167;28;20040;-63
2023/08/18 10:06:24;;;;;;;1.83;1.00;;;;;;;23.77;82.79;99808.28;5095276;28;20059;-64
2023/08/18 10:08:54;;;;;;;0.47;0.47;;;;;;;23.93;82.74;99811.75;5094251;28;20211;-64
2023/08/18 10:11:23;;;;;;;1.55;1.45;;;;;;;23.93;82.40;99811.75;5094618;28;20051;-64
2023/08/18 10:13:59;;;;;;;2.80;1.30;;;;;;;23.93;82.13;99810.91;5095172;28;20469;-64
2023/08/18 10:16:28;;;;;;;;;;;;;;;24.02;81.75;99804.38;5095520;28;20105;-64
2023/08/18 10:18:59;;;;;;;2.28;1.52;;;;;;;24.17;81.10;99803.56;5095073;28;19919;-62
2023/08/18 10:21:28;;;;;;;6.20;2.60;;;;;;;24.43;80.47;99797.75;5095171;28;20047;-64
2023/08/18 10:23:58;;;;;;;2.65;1.35;;;;;;;24.64;79.75;99799.19;5095015;28;20456;-64
2023/08/18 10:26:29;;;;;;;1.48;1.05;;;;;;;24.69;79.12;99796.31;5094063;28;20094;-64
2023/08/18 10:29:16;;;;;;;1.40;1.00;;;;;;;24.72;78.54;99789.13;5093669;28;20393;-62
2023/08/18 10:31:49;;;;;;;4.20;3.78;;;;;;;24.66;78.13;99786.88;5087221;28;20375;-64
2023/08/18 10:34:23;;;;;;;4.20;2.45;;;;;;;24.78;77.49;99786.22;5092209;28;20056;-64
2023/08/18 10:36:59;;;;;;;0.60;0.60;;;;;;;24.94;77.00;99787.00;5090648;28;20474;-63
2023/08/18 10:39:32;;;;;;;1.33;1.08;;;;;;;24.99;76.17;99784.97;5086822;28;20055;-65
2023/08/18 10:42:07;;;;;;;2.22;1.35;;;;;;;25.05;75.80;99782.00;5094708;28;20048;-64
2023/08/18 10:44:36;;;;;;;1.08;0.82;;;;;;;25.06;75.71;99782.84;5094557;28;20048;-64
2023/08/18 10:47:29;;;;;;;;;;;;;;;25.07;75.82;99788.00;5092925;28;20128;-65
2023/08/18 10:50:00;;;;;;;1.42;1.33;;;;;;;25.12;75.47;99780.69;5094426;28;19946;-65
2023/08/18 10:52:32;;;;;;;0.70;0.70;;;;;;;25.24;75.41;99782.59;5093798;28;20048;-63
2023/08/18 10:55:03;;;;;;;2.15;1.52;;;;;;;25.34;74.94;99771.63;5094430;28;20091;-64
2023/08/18 10:57:33;;;;;;;1.67;1.50;;;;;;;25.36;74.87;99780.19;5093618;28;20040;-64
2023/08/18 11:00:05;;;;;;;1.10;1.02;;;;;;;25.30;74.24;99768.31;5094329;28;20052;-64
2023/08/18 11:02:35;;;;;;;1.50;1.40;;;;;;;25.33;74.01;99762.09;5094248;28;20074;-63
2023/08/18 11:05:07;;;;;;;1.15;1.00;;;;;;;25.47;74.42;99769.97;5093821;28;20127;-61
2023/08/18 11:07:37;;;;;;;1.98;1.13;;;;;;;25.56;74.13;99766.78;5094452;28;20048;-65
2023/08/18 11:10:17;;;;;;;1.48;1.00;;;;;;;25.66;74.37;99765.28;5092937;28;20551;-65
2023/08/18 11:12:47;;;;;;;0.75;0.75;;;;;;;25.66;74.02;99770.53;5094152;28;20040;-64
2023/08/18 11:15:16;;;;;;;1.15;0.98;;;;;;;25.76;73.95;99764.66;5093195;28;20055;-64
2023/08/18 11:17:45;;;;;;;1.50;1.25;;;;;;;25.91;73.62;99765.47;5093979;28;20051;-65
2023/08/18 11:20:16;;;;;;;1.48;1.38;;;;;;;25.86;72.93;99768.38;5092735;28;20056;-64
2023/08/18 11:22:48;;;;;;;0.98;0.80;;;;;;;25.86;72.19;99768.38;5092826;28;20495;-63
2023/08/18 11:25:17;;;;;;;0.98;0.90;;;;;;;26.03;72.80;99769.09;5094182;28;20048;-64
2023/08/18 11:27:46;;;;;;;1.63;1.20;;;;;;;26.22;72.85;99760.03;5094103;28;20058;-66
2023/08/18 11:30:16;;;;;;;0.95;0.80;;;;;;;26.30;72.44;99757.75;5093857;28;20071;-66
2023/08/18 11:32:46;;;;;;;1.90;1.33;;;;;;;26.46;72.23;99763.72;5090017;28;20032;-66
2023/08/18 11:35:19;;;;;;;1.15;0.93;;;;;;;26.58;71.61;99762.06;5089803;28;20079;-66
2023/08/18 11:37:51;;;;;;;0.90;0.80;;;;;;;26.80;71.46;99761.53;5092008;28;20055;-66
2023/08/18 11:40:23;;;;;;;2.35;1.70;;;;;;;27.07;70.60;99764.91;5093744;28;20050;-66
2023/08/18 11:42:54;;;;;;;0.85;0.82;;;;;;;27.01;69.94;99754.88;5089870;28;20040;-67
2023/08/18 11:45:25;;;;;;;4.18;1.33;;;;;;;26.82;70.06;99757.03;5089805;28;20067;-66
2023/08/18 11:48:03;;;;;;;3.47;1.63;;;;;;;26.90;69.82;99758.19;5093490;28;20055;-66
2023/08/18 11:50:36;;;;;;;1.10;1.00;;;;;;;27.14;69.25;99760.94;5093705;28;20039;-67